createdAt,value
2023-01-03T00:01:30.943Z,98820.78
2023-01-03T00:04:00.730Z,98825.28
2023-01-03T00:06:30.645Z,98835.63
2023-01-03T00:09:01.392Z,98830.66
2023-01-03T00:11:49.524Z,98835.28
2023-01-03T00:14:19.563Z,98845.81
2023-01-03T00:16:51.176Z,98837.34
2023-01-03T00:19:19.445Z,98825.94
2023-01-03T00:21:47.753Z,98826.50
2023-01-03T00:24:18.019Z,98827.03
2023-01-03T00:26:46.546Z,98827.47
2023-01-03T00:29:15.173Z,98829.78
2023-01-03T00:31:44.225Z,98832.31
2023-01-03T00:34:12.594Z,98840.09
2023-01-03T00:36:40.889Z,98825.72
2023-01-03T00:39:09.188Z,98835.69
2023-01-03T00:41:39.223Z,98830.88
2023-01-03T00:44:07.940Z,98840.00
2023-01-03T00:46:36.817Z,98835.44
2023-01-03T00:49:06.050Z,98833.38
2023-01-03T00:51:36.632Z,98847.88
2023-01-03T00:54:06.383Z,98858.69
2023-01-03T00:56:39.413Z,98866.03
2023-01-03T00:59:08.690Z,98860.63
2023-01-03T01:01:46.244Z,98859.53
2023-01-03T01:04:20.235Z,98870.56
2023-01-03T01:06:51.246Z,98872.66
2023-01-03T01:09:22.086Z,98860.06
2023-01-03T01:11:52.514Z,98863.75
2023-01-03T01:14:23.190Z,98869.91
2023-01-03T01:16:53.656Z,98875.91
2023-01-03T01:19:24.173Z,98865.03
2023-01-03T01:21:53.081Z,98864.59
2023-01-03T01:24:21.173Z,98873.91
2023-01-03T01:26:49.388Z,98874.38
2023-01-03T01:29:19.255Z,98880.41
2023-01-03T01:31:48.945Z,98879.56
2023-01-03T01:34:18.926Z,98890.09
2023-01-03T01:36:48.111Z,98880.91
2023-01-03T01:39:18.528Z,98871.78
2023-01-03T01:42:05.807Z,98892.09
2023-01-03T01:44:49.633Z,98899.25
2023-01-03T01:47:23.371Z,98882.97
2023-01-03T01:49:56.023Z,98878.63
2023-01-03T01:52:26.345Z,98890.88
2023-01-03T01:54:56.294Z,98883.00
2023-01-03T01:57:26.746Z,98896.41
2023-01-03T01:59:56.337Z,98884.75
2023-01-03T02:02:25.327Z,98879.78
2023-01-03T02:04:56.780Z,98883.81
2023-01-03T02:07:25.388Z,98882.50
2023-01-03T02:09:58.364Z,98871.13
2023-01-03T02:12:51.331Z,98872.53
2023-01-03T02:15:31.148Z,98871.19
2023-01-03T02:18:11.973Z,98877.19
2023-01-03T02:21:08.867Z,98873.72
2023-01-03T02:24:07.309Z,98882.19
2023-01-03T02:26:45.986Z,98893.25
2023-01-03T02:29:52.194Z,98886.09
2023-01-03T02:32:28.603Z,98880.38
2023-01-03T02:35:05.503Z,98893.09
2023-01-03T02:37:38.609Z,98886.41
2023-01-03T02:40:14.286Z,98912.41
2023-01-03T02:43:02.915Z,98917.09
2023-01-03T02:45:47.035Z,98909.63
2023-01-03T02:48:24.801Z,98911.63
2023-01-03T02:50:58.192Z,98912.13
2023-01-03T02:53:29.924Z,98899.81
2023-01-03T02:56:01.791Z,98908.50
2023-01-03T02:58:32.704Z,98901.97
2023-01-03T03:01:04.163Z,98905.72
2023-01-03T03:03:38.071Z,98909.22
2023-01-03T03:06:12.843Z,98908.34
2023-01-03T03:08:41.032Z,98919.41
2023-01-03T03:11:26.646Z,98911.00
2023-01-03T03:13:59.689Z,98917.78
2023-01-03T03:16:49.268Z,98916.69
2023-01-03T03:19:42.170Z,98918.78
2023-01-03T03:22:44.723Z,98931.94
2023-01-03T03:25:17.002Z,98933.16
2023-01-03T03:28:06.228Z,98938.28
2023-01-03T03:30:37.790Z,98945.22
2023-01-03T03:33:07.240Z,98976.63
2023-01-03T03:35:45.962Z,98958.84
2023-01-03T03:38:18.722Z,98954.56
2023-01-03T03:41:14.878Z,98973.22
2023-01-03T03:44:07.882Z,98967.72
2023-01-03T03:46:52.342Z,98976.94
2023-01-03T03:49:40.792Z,98988.16
2023-01-03T03:52:14.645Z,98986.84
2023-01-03T03:54:48.106Z,98975.53
2023-01-03T03:57:20.465Z,98989.56
2023-01-03T03:59:54.256Z,98976.19
2023-01-03T04:02:25.599Z,98998.44
2023-01-03T04:04:59.167Z,99011.03
2023-01-03T04:07:28.992Z,98992.41
2023-01-03T04:09:57.368Z,99006.34
2023-01-03T04:12:25.637Z,98994.47
2023-01-03T04:14:53.750Z,98990.72
2023-01-03T04:17:21.878Z,99002.97
2023-01-03T04:19:49.967Z,98992.59
2023-01-03T04:22:18.175Z,99010.63
2023-01-03T04:24:47.666Z,99002.94
2023-01-03T04:27:15.749Z,98999.06
2023-01-03T04:29:44.030Z,99002.22
2023-01-03T04:32:12.282Z,99019.78
2023-01-03T04:34:40.924Z,99015.44
2023-01-03T04:37:09.175Z,99013.53
2023-01-03T04:39:37.362Z,99039.19
2023-01-03T04:42:27.844Z,99026.56
2023-01-03T04:44:55.089Z,99038.81
2023-01-03T04:47:23.288Z,99034.44
2023-01-03T04:49:52.099Z,99029.72
2023-01-03T04:52:20.201Z,99034.56
2023-01-03T04:54:48.739Z,99037.25
2023-01-03T04:57:18.249Z,99032.06
2023-01-03T04:59:46.399Z,99036.28
2023-01-03T05:02:14.615Z,99042.06
2023-01-03T05:04:42.936Z,99035.66
2023-01-03T05:07:11.027Z,99037.00
2023-01-03T05:09:39.094Z,99049.44
2023-01-03T05:12:07.548Z,99046.38
2023-01-03T05:14:37.281Z,99047.91
2023-01-03T05:17:05.428Z,99035.88
2023-01-03T05:19:33.602Z,99056.19
2023-01-03T05:22:18.764Z,99055.25
2023-01-03T05:25:19.193Z,99053.34
2023-01-03T05:27:47.311Z,99059.41
2023-01-03T05:30:16.873Z,99052.00
2023-01-03T05:32:44.966Z,99072.09
2023-01-03T05:35:13.113Z,99075.53
2023-01-03T05:37:41.753Z,99087.81
2023-01-03T05:40:11.590Z,99080.47
2023-01-03T05:42:39.675Z,99080.06
2023-01-03T05:45:09.172Z,99084.84
2023-01-03T05:47:38.672Z,99090.81
2023-01-03T05:50:07.909Z,99096.78
2023-01-03T05:52:36.124Z,99105.22
2023-01-03T05:55:04.320Z,99101.03
2023-01-03T05:57:35.681Z,99118.03
2023-01-03T06:00:04.910Z,99118.25
2023-01-03T06:02:34.069Z,99117.97
2023-01-03T06:05:03.527Z,99108.00
2023-01-03T06:07:33.113Z,99120.94
2023-01-03T06:10:01.458Z,99114.75
2023-01-03T06:12:30.574Z,99114.28
2023-01-03T06:14:58.820Z,99115.03
2023-01-03T06:17:44.828Z,99124.34
2023-01-03T06:20:14.358Z,99126.19
2023-01-03T06:22:42.436Z,99139.16
2023-01-03T06:25:12.633Z,99132.22
2023-01-03T06:27:40.784Z,99143.16
2023-01-03T06:30:10.272Z,99159.53
2023-01-03T06:32:38.375Z,99163.41
2023-01-03T06:35:07.300Z,99166.69
2023-01-03T06:37:36.835Z,99167.34
2023-01-03T06:40:06.165Z,99174.38
2023-01-03T06:42:46.609Z,99171.84
2023-01-03T06:45:33.394Z,99180.22
2023-01-03T06:48:22.697Z,99190.00
2023-01-03T06:51:08.276Z,99195.63
2023-01-03T06:53:39.868Z,99192.66
2023-01-03T06:56:09.634Z,99197.03
2023-01-03T06:58:38.061Z,99190.00
2023-01-03T07:01:07.931Z,99200.75
2023-01-03T07:03:36.237Z,99199.66
2023-01-03T07:06:04.434Z,99197.13
2023-01-03T07:08:32.541Z,99195.00
2023-01-03T07:11:01.992Z,99201.16
2023-01-03T07:13:47.442Z,99199.22
2023-01-03T07:16:16.155Z,99206.72
2023-01-03T07:18:50.678Z,99197.38
2023-01-03T07:21:23.614Z,99213.53
2023-01-03T07:23:53.634Z,99215.50
2023-01-03T07:26:24.418Z,99221.19
2023-01-03T07:28:52.733Z,99227.06
2023-01-03T07:31:21.593Z,99232.25
2023-01-03T07:33:49.748Z,99230.25
2023-01-03T07:36:18.584Z,99237.91
2023-01-03T07:38:47.203Z,99236.00
2023-01-03T07:41:16.293Z,99237.78
2023-01-03T07:43:46.629Z,99241.38
2023-01-03T07:46:18.530Z,99248.47
2023-01-03T07:48:48.249Z,99249.94
2023-01-03T07:51:18.586Z,99253.91
2023-01-03T07:53:47.108Z,99261.56
2023-01-03T07:56:17.256Z,99256.88
2023-01-03T07:58:47.421Z,99260.06
2023-01-03T08:01:17.285Z,99270.00
2023-01-03T08:03:45.678Z,99259.38
2023-01-03T08:06:16.012Z,99258.53
2023-01-03T08:08:44.963Z,99271.56
2023-01-03T08:11:31.638Z,99286.25
2023-01-03T08:14:01.177Z,99274.44
2023-01-03T08:16:29.311Z,99276.50
2023-01-03T08:18:57.441Z,99279.75
2023-01-03T08:21:25.535Z,99285.31
2023-01-03T08:23:53.673Z,99285.78
2023-01-03T08:26:22.090Z,99281.84
2023-01-03T08:28:50.170Z,99281.31
2023-01-03T08:31:22.375Z,99285.69
2023-01-03T08:33:53.168Z,99291.34
2023-01-03T08:36:22.323Z,99292.44
2023-01-03T08:38:54.971Z,99289.88
2023-01-03T08:41:27.359Z,99294.81
2023-01-03T08:43:56.746Z,99297.16
2023-01-03T08:46:26.330Z,99298.41
2023-01-03T08:48:57.016Z,99297.16
2023-01-03T08:51:26.807Z,99295.06
2023-01-03T08:53:54.885Z,99307.75
2023-01-03T08:56:23.166Z,99302.41
2023-01-03T08:58:51.192Z,99304.88
2023-01-03T09:01:20.994Z,99309.53
2023-01-03T09:03:50.836Z,99313.19
2023-01-03T09:06:19.796Z,99309.88
2023-01-03T09:08:47.907Z,99302.66
2023-01-03T09:11:16.063Z,99308.66
2023-01-03T09:13:44.145Z,99303.44
2023-01-03T09:16:14.458Z,99308.59
2023-01-03T09:18:42.748Z,99316.41
2023-01-03T09:21:12.267Z,99304.84
2023-01-03T09:23:40.402Z,99296.50
2023-01-03T09:26:08.669Z,99302.25
2023-01-03T09:28:36.726Z,99309.88
2023-01-03T09:31:05.954Z,99313.44
2023-01-03T09:33:34.150Z,99303.84
2023-01-03T09:36:02.247Z,99305.84
2023-01-03T09:38:31.676Z,99308.25
2023-01-03T09:41:06.156Z,99312.19
2023-01-03T09:43:41.088Z,99299.97
2023-01-03T09:46:18.371Z,99307.44
2023-01-03T09:48:48.458Z,99310.31
2023-01-03T09:51:38.502Z,99309.81
2023-01-03T09:54:29.625Z,99309.69
2023-01-03T09:57:15.633Z,99298.53
2023-01-03T10:00:01.481Z,99295.72
2023-01-03T10:03:17.989Z,99295.41
2023-01-03T10:05:59.120Z,99303.69
2023-01-03T10:08:37.927Z,99303.91
2023-01-03T10:11:11.150Z,99302.44
2023-01-03T10:14:01.668Z,99318.88
2023-01-03T10:16:41.737Z,99328.19
2023-01-03T10:19:26.488Z,99313.41
2023-01-03T10:22:04.773Z,99315.34
2023-01-03T10:24:44.416Z,99315.75
2023-01-03T10:27:17.994Z,99319.69
2023-01-03T10:29:47.445Z,99321.28
2023-01-03T10:32:49.464Z,99317.44
2023-01-03T10:35:20.993Z,99310.13
2023-01-03T10:37:51.471Z,99314.75
2023-01-03T10:40:19.823Z,99316.22
2023-01-03T10:42:50.581Z,99310.06
2023-01-03T10:45:20.393Z,99314.41
2023-01-03T10:47:59.677Z,99317.13
2023-01-03T10:50:29.710Z,99320.31
2023-01-03T10:53:00.717Z,99306.16
2023-01-03T10:55:29.467Z,99309.28
2023-01-03T10:58:04.030Z,99306.91
2023-01-03T11:00:34.688Z,99311.13
2023-01-03T11:03:12.379Z,99301.63
2023-01-03T11:05:42.112Z,99314.06
2023-01-03T11:08:20.416Z,99310.25
2023-01-03T11:10:59.830Z,99325.28
2023-01-03T11:13:37.953Z,99319.34
2023-01-03T11:16:15.041Z,99314.09
2023-01-03T11:18:44.542Z,99307.81
2023-01-03T11:21:23.316Z,99316.69
2023-01-03T11:24:09.201Z,99308.31
2023-01-03T11:26:48.185Z,99325.16
2023-01-03T11:29:47.252Z,99298.19
2023-01-03T11:32:25.987Z,99296.59
2023-01-03T11:35:24.232Z,99305.00
2023-01-03T11:38:02.323Z,99290.75
2023-01-03T11:40:41.059Z,99297.19
2023-01-03T11:43:23.775Z,99291.53
2023-01-03T11:46:16.804Z,99296.59
2023-01-03T11:48:59.583Z,99304.84
2023-01-03T11:51:35.207Z,99302.72
2023-01-03T11:54:08.781Z,99293.56
2023-01-03T11:56:40.783Z,99285.53
2023-01-03T11:59:54.157Z,99282.00
2023-01-03T12:03:03.911Z,99286.78
2023-01-03T12:05:49.893Z,99283.19
2023-01-03T12:08:54.116Z,99280.63
2023-01-03T12:11:32.987Z,99290.66
2023-01-03T12:14:06.351Z,99287.28
2023-01-03T12:16:39.800Z,99287.09
2023-01-03T12:19:16.159Z,99286.16
2023-01-03T12:21:49.497Z,99278.03
2023-01-03T12:24:27.759Z,99270.19
2023-01-03T12:26:58.701Z,99270.75
2023-01-03T12:29:34.743Z,99272.63
2023-01-03T12:32:09.859Z,99278.19
2023-01-03T12:34:46.406Z,99278.63
2023-01-03T12:37:17.517Z,99268.25
2023-01-03T12:39:55.380Z,99271.78
2023-01-03T12:42:34.392Z,99278.97
2023-01-03T12:45:20.569Z,99276.75
2023-01-03T12:47:55.699Z,99273.72
2023-01-03T12:50:30.984Z,99283.41
2023-01-03T12:53:06.818Z,99274.03
2023-01-03T12:55:47.917Z,99263.88
2023-01-03T12:58:38.885Z,99276.34
2023-01-03T13:01:14.282Z,99275.94
2023-01-03T13:03:47.252Z,99266.00
2023-01-03T13:06:21.611Z,99268.66
2023-01-03T13:08:52.893Z,99275.34
2023-01-03T13:11:25.174Z,99270.16
2023-01-03T13:13:59.504Z,99273.72
2023-01-03T13:16:38.725Z,99272.47
2023-01-03T13:19:55.721Z,99266.66
2023-01-03T13:22:50.039Z,99269.88
2023-01-03T13:25:39.971Z,99270.41
2023-01-03T13:28:33.199Z,99267.13
2023-01-03T13:31:38.098Z,99267.13
2023-01-03T13:34:44.888Z,99284.03
2023-01-03T13:37:23.682Z,99273.22
2023-01-03T13:40:52.532Z,99267.16
2023-01-03T13:43:23.222Z,99275.31
2023-01-03T13:45:57.664Z,99270.16
2023-01-03T13:48:40.177Z,99275.94
2023-01-03T13:51:37.927Z,99285.31
2023-01-03T13:54:37.118Z,99282.03
2023-01-03T13:57:27.485Z,99278.66
2023-01-03T14:00:00.215Z,99287.81
2023-01-03T14:03:04.372Z,99298.06
2023-01-03T14:06:01.480Z,99295.53
2023-01-03T14:08:42.588Z,99289.06
2023-01-03T14:11:36.149Z,99297.38
2023-01-03T14:14:11.654Z,99302.56
2023-01-03T14:16:48.445Z,99298.34
2023-01-03T14:19:22.876Z,99313.41
2023-01-03T14:21:56.451Z,99319.41
2023-01-03T14:24:27.782Z,99315.44
2023-01-03T14:27:00.217Z,99309.22
2023-01-03T14:29:29.527Z,99311.56
2023-01-03T14:32:00.471Z,99309.56
2023-01-03T14:34:33.011Z,99316.09
2023-01-03T14:37:03.473Z,99321.34
2023-01-03T14:42:01.954Z,99303.38
2023-01-03T14:44:31.027Z,99307.75
2023-01-03T14:47:03.915Z,99300.56
2023-01-03T14:49:42.569Z,99314.09
2023-01-03T14:52:18.551Z,99308.63
2023-01-03T14:54:50.565Z,99317.94
2023-01-03T14:57:21.640Z,99310.50
2023-01-03T14:59:50.329Z,99315.97
2023-01-03T15:02:21.290Z,99320.34
2023-01-03T15:04:54.952Z,99322.53
2023-01-03T15:07:33.730Z,99324.34
2023-01-03T15:10:24.277Z,99328.72
2023-01-03T15:13:00.638Z,99329.03
2023-01-03T15:15:37.933Z,99333.06
2023-01-03T15:18:09.875Z,99335.41
2023-01-03T15:20:40.996Z,99330.91
2023-01-03T15:23:24.288Z,99335.72
2023-01-03T15:25:53.908Z,99336.81
2023-01-03T15:28:27.708Z,99347.94
2023-01-03T15:30:57.890Z,99347.97
2023-01-03T15:33:33.686Z,99357.16
2023-01-03T15:36:06.271Z,99357.78
2023-01-03T15:41:38.745Z,99354.50
2023-01-03T15:44:08.385Z,99358.75
2023-01-03T15:46:36.876Z,99362.69
2023-01-03T15:49:07.482Z,99372.81
2023-01-03T15:51:37.360Z,99369.19
2023-01-03T15:54:10.765Z,99378.47
2023-01-03T15:56:48.034Z,99390.06
2023-01-03T15:59:24.908Z,99392.66
2023-01-03T16:01:53.665Z,99397.66
2023-01-03T16:04:23.079Z,99406.06
2023-01-03T16:06:52.345Z,99405.41
2023-01-03T16:09:21.410Z,99408.31
2023-01-03T16:11:58.319Z,99404.97
2023-01-03T16:14:35.584Z,99407.72
2023-01-03T16:17:05.221Z,99411.66
2023-01-03T16:19:35.124Z,99413.47
2023-01-03T16:24:54.225Z,99423.66
2023-01-03T16:27:25.743Z,99427.94
2023-01-03T16:29:55.252Z,99426.31
2023-01-03T16:32:27.575Z,99430.09
2023-01-03T16:35:03.001Z,99422.50
2023-01-03T16:37:31.390Z,99426.25
2023-01-03T16:39:59.419Z,99429.44
2023-01-03T16:42:28.934Z,99422.50
2023-01-03T16:44:57.916Z,99425.13
2023-01-03T16:47:30.289Z,99426.22
2023-01-03T16:50:01.898Z,99430.56
2023-01-03T16:52:35.237Z,99435.44
2023-01-03T16:55:07.382Z,99438.56
2023-01-03T16:57:37.082Z,99435.16
2023-01-03T17:00:16.581Z,99427.44
2023-01-03T17:02:45.165Z,99435.88
2023-01-03T17:05:15.234Z,99441.03
2023-01-03T17:07:44.711Z,99437.91
2023-01-03T17:10:26.554Z,99436.50
2023-01-03T17:12:56.986Z,99443.38
2023-01-03T17:15:25.159Z,99433.72
2023-01-03T17:17:53.441Z,99433.50
2023-01-03T17:20:23.890Z,99434.91
2023-01-03T17:22:54.271Z,99435.53
2023-01-03T17:25:22.622Z,99439.41
2023-01-03T17:27:54.448Z,99444.88
2023-01-03T17:30:25.794Z,99444.09
2023-01-03T17:32:55.261Z,99438.06
2023-01-03T17:36:12.961Z,99433.66
2023-01-03T17:38:41.715Z,99431.22
2023-01-03T17:41:17.725Z,99447.56
2023-01-03T17:43:46.400Z,99441.66
2023-01-03T17:46:37.650Z,99446.97
2023-01-03T17:49:23.999Z,99442.16
2023-01-03T17:51:56.695Z,99451.91
2023-01-03T17:54:30.533Z,99455.72
2023-01-03T17:57:00.432Z,99449.81
2023-01-03T17:59:29.118Z,99454.56
2023-01-03T18:01:57.855Z,99453.75
2023-01-03T18:04:44.112Z,99455.03
2023-01-03T18:07:21.917Z,99457.16
2023-01-03T18:09:51.371Z,99452.84
2023-01-03T18:12:21.693Z,99455.81
2023-01-03T18:14:50.223Z,99449.47
2023-01-03T18:17:28.306Z,99459.69
2023-01-03T18:19:56.544Z,99455.00
2023-01-03T18:22:26.335Z,99455.88
2023-01-03T18:24:55.673Z,99466.00
2023-01-03T18:27:26.528Z,99468.13
2023-01-03T18:29:54.821Z,99467.47
2023-01-03T18:32:27.841Z,99465.09
2023-01-03T18:34:56.366Z,99470.66
2023-01-03T18:37:28.345Z,99465.00
2023-01-03T18:39:57.051Z,99474.00
2023-01-03T18:42:42.898Z,99471.59
2023-01-03T18:45:12.982Z,99474.63
2023-01-03T18:47:41.299Z,99470.59
2023-01-03T18:50:18.061Z,99480.91
2023-01-03T18:52:49.493Z,99477.16
2023-01-03T18:55:21.483Z,99485.78
2023-01-03T18:57:51.654Z,99477.94
2023-01-03T19:00:22.318Z,99478.03
2023-01-03T19:02:51.593Z,99472.91
2023-01-03T19:05:20.439Z,99469.78
2023-01-03T19:07:52.912Z,99483.63
2023-01-03T19:10:24.158Z,99476.34
2023-01-03T19:12:53.354Z,99478.66
2023-01-03T19:15:23.842Z,99493.56
2023-01-03T19:17:52.052Z,99491.84
2023-01-03T19:20:26.304Z,99499.19
2023-01-03T19:22:57.278Z,99503.28
2023-01-03T19:25:28.899Z,99503.75
2023-01-03T19:27:58.832Z,99504.66
2023-01-03T19:30:37.426Z,99503.66
2023-01-03T19:33:07.121Z,99497.63
2023-01-03T19:35:35.334Z,99487.53
2023-01-03T19:38:04.985Z,99493.91
2023-01-03T19:40:35.605Z,99486.72
2023-01-03T19:43:04.146Z,99493.34
2023-01-03T19:45:34.235Z,99481.44
2023-01-03T19:48:04.461Z,99489.25
2023-01-03T19:50:35.246Z,99493.63
2023-01-03T19:53:06.380Z,99496.22
2023-01-03T19:55:38.643Z,99503.03
2023-01-03T19:58:16.021Z,99493.69
2023-01-03T20:00:44.744Z,99496.47
2023-01-03T20:03:29.027Z,99500.56
2023-01-03T20:05:57.600Z,99507.59
2023-01-03T20:08:27.366Z,99497.84
2023-01-03T20:10:56.137Z,99492.28
2023-01-03T20:13:25.791Z,99495.00
2023-01-03T20:15:55.699Z,99501.63
2023-01-03T20:18:27.270Z,99503.63
2023-01-03T20:20:57.892Z,99504.44
2023-01-03T20:23:30.692Z,99500.81
2023-01-03T20:25:59.111Z,99502.63
2023-01-03T20:28:29.507Z,99510.91
2023-01-03T20:30:58.628Z,99508.66
2023-01-03T20:33:27.213Z,99503.94
2023-01-03T20:36:21.787Z,99508.38
2023-01-03T20:38:48.958Z,99516.47
2023-01-03T20:41:18.763Z,99515.16
2023-01-03T20:43:50.419Z,99515.84
2023-01-03T20:46:21.055Z,99516.59
2023-01-03T20:48:56.086Z,99527.00
2023-01-03T20:51:25.136Z,99519.91
2023-01-03T20:53:55.540Z,99510.13
2023-01-03T20:56:24.175Z,99512.75
2023-01-03T20:58:52.716Z,99514.78
2023-01-03T21:01:20.927Z,99511.03
2023-01-03T21:03:49.323Z,99515.72
2023-01-03T21:06:20.206Z,99520.06
2023-01-03T21:08:58.181Z,99514.88
2023-01-03T21:11:30.066Z,99518.13
2023-01-03T21:13:59.553Z,99510.34
2023-01-03T21:16:32.143Z,99515.72
2023-01-03T21:19:11.747Z,99515.63
2023-01-03T21:21:40.821Z,99515.94
2023-01-03T21:24:10.701Z,99514.00
2023-01-03T21:26:40.543Z,99513.31
2023-01-03T21:29:08.983Z,99519.56
2023-01-03T21:31:37.739Z,99522.53
2023-01-03T21:34:08.007Z,99519.78
2023-01-03T21:36:37.479Z,99514.53
2023-01-03T21:39:06.012Z,99516.53
2023-01-03T21:41:55.898Z,99526.81
2023-01-03T21:44:25.449Z,99526.38
2023-01-03T21:46:53.694Z,99527.69
2023-01-03T21:49:21.885Z,99535.38
2023-01-03T21:51:49.952Z,99540.81
2023-01-03T21:54:18.413Z,99549.72
2023-01-03T21:56:47.089Z,99541.56
2023-01-03T21:59:16.394Z,99541.56
2023-01-03T22:02:04.099Z,99546.78
2023-01-03T22:04:32.582Z,99547.47
2023-01-03T22:07:02.121Z,99546.34
2023-01-03T22:09:48.265Z,99545.78
2023-01-03T22:12:17.000Z,99543.13
2023-01-03T22:14:45.349Z,99550.56
2023-01-03T22:17:15.461Z,99559.09
2023-01-03T22:19:43.691Z,99547.00
2023-01-03T22:22:11.974Z,99556.41
2023-01-03T22:24:40.061Z,99556.53
2023-01-03T22:27:08.430Z,99553.75
2023-01-03T22:29:36.613Z,99560.81
2023-01-03T22:32:05.095Z,99552.19
2023-01-03T22:34:34.749Z,99557.66
2023-01-03T22:37:02.904Z,99559.81
2023-01-03T22:39:31.039Z,99563.41
2023-01-03T22:41:59.230Z,99565.41
2023-01-03T22:44:27.355Z,99559.97
2023-01-03T22:46:55.465Z,99565.44
2023-01-03T22:49:23.633Z,99555.47
2023-01-03T22:51:53.142Z,99544.00
2023-01-03T22:54:21.581Z,99550.25
2023-01-03T22:56:49.741Z,99546.22
2023-01-03T22:59:18.053Z,99545.19
2023-01-03T23:01:46.687Z,99552.06
2023-01-03T23:04:15.218Z,99548.53
2023-01-03T23:06:43.325Z,99550.75
2023-01-03T23:09:14.100Z,99553.44
2023-01-03T23:12:00.050Z,99543.69
2023-01-03T23:14:28.663Z,99534.56
2023-01-03T23:16:57.387Z,99542.22
2023-01-03T23:19:28.007Z,99536.44
2023-01-03T23:21:58.322Z,99536.78
2023-01-03T23:24:27.839Z,99530.00
2023-01-03T23:26:55.898Z,99521.59
2023-01-03T23:29:24.197Z,99527.78
2023-01-03T23:31:52.881Z,99530.63
2023-01-03T23:34:21.148Z,99531.59
2023-01-03T23:36:49.692Z,99540.94
2023-01-03T23:39:19.573Z,99535.72
2023-01-03T23:41:49.355Z,99526.19
2023-01-03T23:44:17.473Z,99546.97
2023-01-03T23:46:45.661Z,99538.78
2023-01-03T23:49:16.320Z,99547.22
2023-01-03T23:51:44.622Z,99544.13
2023-01-03T23:54:12.914Z,99550.41
2023-01-03T23:56:41.006Z,99549.50
2023-01-03T23:59:10.535Z,99551.03
